createdAt,value
2023-05-11T00:02:24.080Z,97212.69
2023-05-11T00:05:20.277Z,97213.50
2023-05-11T00:07:58.876Z,97201.50
2023-05-11T00:13:23.254Z,97208.22
2023-05-11T00:15:54.569Z,97219.28
2023-05-11T00:18:38.115Z,97214.63
2023-05-11T00:21:10.386Z,97205.63
2023-05-11T00:23:45.855Z,97210.69
2023-05-11T00:26:19.707Z,97204.34
2023-05-11T00:31:58.190Z,97208.66
2023-05-11T00:34:27.396Z,97186.91
2023-05-11T00:37:16.538Z,97195.97
2023-05-11T00:39:50.994Z,97187.16
2023-05-11T00:42:19.485Z,97201.00
2023-05-11T00:47:55.154Z,97212.28
2023-05-11T00:50:27.716Z,97188.41
2023-05-11T00:52:59.632Z,97216.25
2023-05-11T00:55:31.905Z,97189.34
2023-05-11T00:58:26.856Z,97193.00
2023-05-11T01:00:57.484Z,97197.09
2023-05-11T01:03:30.293Z,97200.44
2023-05-11T01:06:31.566Z,97201.44
2023-05-11T01:15:37.902Z,97190.97
2023-05-11T01:18:46.415Z,97201.34
2023-05-11T01:21:22.581Z,97183.97
2023-05-11T01:24:19.146Z,97189.63
2023-05-11T01:27:01.839Z,97191.56
2023-05-11T01:29:48.794Z,97184.66
2023-05-11T01:32:22.515Z,97199.56
2023-05-11T01:35:20.582Z,97200.88
2023-05-11T01:40:54.039Z,97203.59
2023-05-11T01:43:35.051Z,97191.00
2023-05-11T01:46:20.030Z,97197.53
2023-05-11T01:48:58.943Z,97194.75
2023-05-11T01:51:32.157Z,97201.50
2023-05-11T01:54:24.990Z,97201.81
2023-05-11T01:56:57.619Z,97200.78
2023-05-11T01:59:30.461Z,97187.44
2023-05-11T02:02:06.656Z,97195.28
2023-05-11T02:04:39.359Z,97188.03
2023-05-11T02:07:15.162Z,97190.50
2023-05-11T02:09:47.580Z,97192.38
2023-05-11T02:12:20.705Z,97186.81
2023-05-11T02:18:01.381Z,97186.50
2023-05-11T02:20:35.097Z,97193.09
2023-05-11T02:23:54.461Z,97198.00
2023-05-11T02:26:37.543Z,97189.00
2023-05-11T02:29:06.189Z,97198.72
2023-05-11T02:32:01.828Z,97185.59
2023-05-11T02:34:35.768Z,97204.34
2023-05-11T02:40:23.319Z,97191.78
2023-05-11T02:43:11.353Z,97189.44
2023-05-11T02:45:46.061Z,97193.84
2023-05-11T02:48:32.702Z,97187.03
2023-05-11T02:51:05.509Z,97191.91
2023-05-11T02:53:44.571Z,97195.50
2023-05-11T02:56:14.301Z,97181.91
2023-05-11T02:58:46.766Z,97193.13
2023-05-11T03:01:20.393Z,97187.97
2023-05-11T03:03:54.629Z,97181.06
2023-05-11T03:06:23.377Z,97164.28
2023-05-11T03:08:57.560Z,97180.66
2023-05-11T03:11:34.956Z,97187.25
2023-05-11T03:14:09.259Z,97187.63
2023-05-11T03:17:15.888Z,97166.03
2023-05-11T03:19:50.572Z,97182.69
2023-05-11T03:22:23.235Z,97166.59
2023-05-11T03:24:56.404Z,97169.84
2023-05-11T03:27:27.493Z,97189.63
2023-05-11T03:30:00.587Z,97183.56
2023-05-11T03:32:34.451Z,97184.06
2023-05-11T03:35:06.601Z,97186.34
2023-05-11T03:37:36.868Z,97195.22
2023-05-11T03:40:10.503Z,97159.31
2023-05-11T03:42:43.491Z,97186.06
2023-05-11T03:45:16.994Z,97191.09
2023-05-11T03:47:50.556Z,97174.13
2023-05-11T03:50:30.470Z,97187.41
2023-05-11T03:53:04.752Z,97188.66
2023-05-11T03:55:49.990Z,97185.44
2023-05-11T04:01:02.053Z,97169.16
2023-05-11T04:03:30.492Z,97177.22
2023-05-11T04:06:28.670Z,97183.97
2023-05-11T04:09:14.306Z,97179.44
2023-05-11T04:11:44.539Z,97170.16
2023-05-11T04:14:23.777Z,97171.75
2023-05-11T04:16:59.095Z,97183.06
2023-05-11T04:20:34.377Z,97184.09
2023-05-11T04:23:03.344Z,97174.44
2023-05-11T04:25:41.451Z,97178.72
2023-05-11T04:28:14.336Z,97172.53
2023-05-11T04:31:01.270Z,97177.25
2023-05-11T04:33:29.937Z,97159.34
2023-05-11T04:36:03.402Z,97183.09
2023-05-11T04:38:32.087Z,97171.38
2023-05-11T04:41:07.975Z,97169.56
2023-05-11T04:43:46.614Z,97163.78
2023-05-11T04:46:26.669Z,97174.63
2023-05-11T04:48:55.430Z,97167.31
2023-05-11T04:51:26.053Z,97152.44
2023-05-11T04:54:02.536Z,97169.06
2023-05-11T04:56:38.445Z,97185.03
2023-05-11T04:59:13.584Z,97178.28
2023-05-11T05:01:46.311Z,97178.47
2023-05-11T05:04:18.389Z,97181.38
2023-05-11T05:06:49.525Z,97170.94
2023-05-11T05:09:21.175Z,97182.56
2023-05-11T05:12:20.160Z,97182.56
2023-05-11T05:14:52.828Z,97163.81
2023-05-11T05:17:24.870Z,97194.78
2023-05-11T05:20:01.273Z,97176.78
2023-05-11T05:22:33.026Z,97182.72
2023-05-11T05:25:06.959Z,97185.66
2023-05-11T05:27:38.282Z,97180.56
2023-05-11T05:30:09.527Z,97188.50
2023-05-11T05:32:37.922Z,97199.41
2023-05-11T05:35:07.088Z,97188.81
2023-05-11T05:37:35.878Z,97202.84
2023-05-11T05:40:04.353Z,97203.53
2023-05-11T05:42:32.807Z,97199.28
2023-05-11T05:45:01.556Z,97196.56
2023-05-11T05:47:31.262Z,97195.31
2023-05-11T05:49:59.335Z,97197.56
2023-05-11T05:52:28.425Z,97200.66
2023-05-11T05:54:56.691Z,97204.88
2023-05-11T05:57:24.950Z,97195.09
2023-05-11T05:59:53.378Z,97207.03
2023-05-11T06:02:21.596Z,97206.25
2023-05-11T06:04:51.377Z,97205.22
2023-05-11T06:07:19.809Z,97209.88
2023-05-11T06:09:47.839Z,97208.16
2023-05-11T06:12:15.966Z,97214.28
2023-05-11T06:14:44.651Z,97202.09
2023-05-11T06:17:14.136Z,97214.38
2023-05-11T06:19:42.715Z,97215.84
2023-05-11T06:22:12.771Z,97212.88
2023-05-11T06:24:40.957Z,97215.16
2023-05-11T06:27:09.854Z,97204.56
2023-05-11T06:29:38.705Z,97215.50
2023-05-11T06:32:07.592Z,97209.84
2023-05-11T06:34:36.148Z,97210.66
2023-05-11T06:37:04.653Z,97206.34
2023-05-11T06:39:38.164Z,97211.19
2023-05-11T06:42:06.940Z,97212.66
2023-05-11T06:44:35.701Z,97203.53
2023-05-11T06:47:04.316Z,97203.22
2023-05-11T06:49:32.476Z,97205.13
2023-05-11T06:52:00.675Z,97205.47
2023-05-11T06:54:28.926Z,97214.78
2023-05-11T06:56:58.499Z,97201.97
2023-05-11T06:59:27.053Z,97207.66
2023-05-11T07:01:55.821Z,97203.94
2023-05-11T07:04:24.380Z,97201.53
2023-05-11T07:06:52.837Z,97210.28
2023-05-11T07:09:22.509Z,97201.97
2023-05-11T07:11:52.146Z,97203.22
2023-05-11T07:14:21.693Z,97210.28
2023-05-11T07:16:53.300Z,97213.28
2023-05-11T07:19:21.749Z,97200.53
2023-05-11T07:21:51.348Z,97209.09
2023-05-11T07:24:20.327Z,97209.47
2023-05-11T07:26:50.111Z,97209.47
2023-05-11T07:29:18.732Z,97214.97
2023-05-11T07:31:49.557Z,97218.88
2023-05-11T07:34:18.287Z,97213.72
2023-05-11T07:36:47.026Z,97214.22
2023-05-11T07:39:17.259Z,97213.00
2023-05-11T07:41:45.468Z,97213.09
2023-05-11T07:44:14.061Z,97218.16
2023-05-11T07:46:42.857Z,97214.25
2023-05-11T07:49:18.876Z,97216.03
2023-05-11T07:51:53.200Z,97211.59
2023-05-11T07:54:21.924Z,97226.47
2023-05-11T07:56:50.271Z,97221.75
2023-05-11T07:59:19.349Z,97220.91
2023-05-11T08:01:47.987Z,97214.78
2023-05-11T08:04:17.857Z,97218.38
2023-05-11T08:06:46.652Z,97215.09
2023-05-11T08:09:15.205Z,97210.78
2023-05-11T08:11:48.223Z,97210.78
2023-05-11T08:14:17.801Z,97206.97
2023-05-11T08:16:46.503Z,97215.19
2023-05-11T08:19:15.077Z,97221.94
2023-05-11T08:21:46.451Z,97207.09
2023-05-11T08:24:16.130Z,97204.09
2023-05-11T08:26:44.814Z,97212.97
2023-05-11T08:29:13.598Z,97213.56
2023-05-11T08:31:42.995Z,97213.69
2023-05-11T08:34:19.249Z,97216.63
2023-05-11T08:36:50.769Z,97218.34
2023-05-11T08:39:33.310Z,97211.94
2023-05-11T08:42:08.723Z,97216.94
2023-05-11T08:44:39.926Z,97215.78
2023-05-11T08:49:47.198Z,97212.88
2023-05-11T08:52:20.526Z,97221.19
2023-05-11T08:54:49.286Z,97223.38
2023-05-11T08:57:19.185Z,97212.31
2023-05-11T08:59:48.441Z,97218.53
2023-05-11T09:02:20.798Z,97228.31
2023-05-11T09:04:49.577Z,97211.50
2023-05-11T09:07:21.139Z,97216.06
2023-05-11T09:09:50.114Z,97210.59
2023-05-11T09:12:18.951Z,97206.31
2023-05-11T09:14:47.944Z,97201.09
2023-05-11T09:17:16.481Z,97205.19
2023-05-11T09:20:01.599Z,97205.00
2023-05-11T09:22:36.222Z,97207.19
2023-05-11T09:25:05.714Z,97194.47
2023-05-11T09:27:35.110Z,97202.28
2023-05-11T09:30:12.910Z,97212.69
2023-05-11T09:32:53.044Z,97192.91
2023-05-11T09:35:22.963Z,97203.53
2023-05-11T09:38:05.681Z,97184.97
2023-05-11T09:40:36.682Z,97193.91
2023-05-11T09:43:05.421Z,97192.16
2023-05-11T09:45:38.917Z,97178.72
2023-05-11T09:48:08.563Z,97196.75
2023-05-11T09:50:37.511Z,97200.88
2023-05-11T09:53:07.599Z,97193.47
2023-05-11T09:55:36.610Z,97182.72
2023-05-11T09:58:05.843Z,97191.09
2023-05-11T10:00:34.600Z,97186.09
2023-05-11T10:03:05.066Z,97193.34
2023-05-11T10:05:35.290Z,97174.78
2023-05-11T10:08:05.164Z,97178.75
2023-05-11T10:10:36.251Z,97176.91
2023-05-11T10:13:05.926Z,97175.72
2023-05-11T10:15:37.271Z,97169.88
2023-05-11T10:18:07.181Z,97181.78
2023-05-11T10:20:35.570Z,97167.88
2023-05-11T10:23:04.873Z,97169.69
2023-05-11T10:25:36.000Z,97169.69
2023-05-11T10:28:04.496Z,97170.13
2023-05-11T10:30:35.004Z,97169.81
2023-05-11T10:33:04.380Z,97174.53
2023-05-11T10:35:33.006Z,97156.63
2023-05-11T10:38:03.012Z,97159.94
2023-05-11T10:40:31.416Z,97155.00
2023-05-11T10:43:24.931Z,97159.38
2023-05-11T10:46:01.776Z,97154.97
2023-05-11T10:49:00.521Z,97147.72
2023-05-11T10:51:47.751Z,97145.03
2023-05-11T10:54:28.688Z,97148.19
2023-05-11T10:57:15.105Z,97147.53
2023-05-11T11:00:10.792Z,97159.00
2023-05-11T11:02:39.445Z,97159.47
2023-05-11T11:05:11.444Z,97160.63
2023-05-11T11:08:08.962Z,97161.25
2023-05-11T11:10:39.492Z,97154.72
2023-05-11T11:13:09.519Z,97158.41
2023-05-11T11:16:16.644Z,97157.09
2023-05-11T11:18:45.569Z,97150.78
2023-05-11T11:21:16.323Z,97152.47
2023-05-11T11:23:47.902Z,97154.97
2023-05-11T11:26:19.442Z,97157.25
2023-05-11T11:29:09.839Z,97160.53
2023-05-11T11:31:40.487Z,97155.63
2023-05-11T11:34:36.980Z,97158.59
2023-05-11T11:37:06.708Z,97153.56
2023-05-11T11:39:55.723Z,97153.44
2023-05-11T11:42:40.074Z,97153.75
2023-05-11T11:45:28.951Z,97160.81
2023-05-11T11:48:13.711Z,97162.50
2023-05-11T11:50:47.017Z,97166.81
2023-05-11T11:53:58.456Z,97168.41
2023-05-11T11:56:46.245Z,97173.91
2023-05-11T11:59:16.164Z,97168.69
2023-05-11T12:01:46.957Z,97170.78
2023-05-11T12:04:41.363Z,97168.03
2023-05-11T12:07:14.186Z,97173.09
2023-05-11T12:09:43.192Z,97184.44
2023-05-11T12:12:12.950Z,97176.09
2023-05-11T12:14:49.514Z,97176.59
2023-05-11T12:17:28.398Z,97183.78
2023-05-11T12:20:12.835Z,97174.50
2023-05-11T12:22:45.245Z,97176.91
2023-05-11T12:25:16.487Z,97171.66
2023-05-11T12:27:55.591Z,97190.25
2023-05-11T12:30:26.532Z,97188.16
2023-05-11T12:32:56.927Z,97186.75
2023-05-11T12:35:27.879Z,97181.22
2023-05-11T12:37:57.183Z,97192.53
2023-05-11T12:40:25.665Z,97189.78
2023-05-11T12:42:56.911Z,97193.84
2023-05-11T12:45:26.956Z,97189.66
2023-05-11T12:47:58.895Z,97186.41
2023-05-11T12:50:27.174Z,97184.00
2023-05-11T12:52:55.580Z,97185.84
2023-05-11T12:55:31.096Z,97195.28
2023-05-11T12:58:12.687Z,97194.91
2023-05-11T13:00:53.124Z,97194.63
2023-05-11T13:03:25.653Z,97203.63
2023-05-11T13:06:05.346Z,97206.06
2023-05-11T13:08:33.932Z,97206.97
2023-05-11T13:11:20.948Z,97205.06
2023-05-11T13:13:50.840Z,97207.25
2023-05-11T13:16:30.093Z,97212.84
2023-05-11T13:18:59.933Z,97205.22
2023-05-11T13:21:29.527Z,97206.50
2023-05-11T13:23:58.503Z,97204.88
2023-05-11T13:26:27.815Z,97197.44
2023-05-11T13:29:08.583Z,97212.28
2023-05-11T13:31:44.556Z,97207.59
2023-05-11T13:34:14.740Z,97211.09
2023-05-11T13:36:50.446Z,97209.94
2023-05-11T13:39:20.099Z,97211.75
2023-05-11T13:41:49.226Z,97205.31
2023-05-11T13:44:18.625Z,97209.16
2023-05-11T13:46:47.578Z,97209.28
2023-05-11T13:49:15.570Z,97216.28
2023-05-11T13:51:43.873Z,97214.84
2023-05-11T13:54:13.829Z,97216.34
2023-05-11T13:56:42.659Z,97213.25
2023-05-11T13:59:10.610Z,97210.94
2023-05-11T14:01:40.582Z,97213.38
2023-05-11T14:04:08.924Z,97210.28
2023-05-11T14:06:37.809Z,97214.38
2023-05-11T14:09:06.286Z,97208.75
2023-05-11T14:11:34.144Z,97205.50
2023-05-11T14:14:02.357Z,97214.16
2023-05-11T14:16:31.632Z,97210.25
2023-05-11T14:19:01.223Z,97209.66
2023-05-11T14:21:29.569Z,97203.94
2023-05-11T14:24:10.874Z,97203.94
2023-05-11T14:26:40.293Z,97211.38
2023-05-11T14:29:09.078Z,97204.66
2023-05-11T14:31:37.878Z,97206.84
2023-05-11T14:34:07.653Z,97208.91
2023-05-11T14:36:36.566Z,97208.50
2023-05-11T14:39:04.917Z,97205.03
2023-05-11T14:41:33.046Z,97202.94
2023-05-11T14:44:01.940Z,97198.13
2023-05-11T14:46:30.062Z,97202.31
2023-05-11T14:48:58.850Z,97200.63
2023-05-11T14:51:28.708Z,97204.41
2023-05-11T14:53:56.593Z,97204.34
2023-05-11T14:56:24.609Z,97206.88
2023-05-11T14:58:53.727Z,97213.63
2023-05-11T15:01:21.833Z,97216.03
2023-05-11T15:03:50.075Z,97200.41
2023-05-11T15:06:21.982Z,97209.28
2023-05-11T15:08:52.149Z,97199.25
2023-05-11T15:11:21.787Z,97204.94
2023-05-11T15:13:50.462Z,97209.28
2023-05-11T15:16:18.825Z,97213.25
2023-05-11T15:18:47.034Z,97217.63
2023-05-11T15:21:15.585Z,97216.28
2023-05-11T15:23:43.716Z,97215.22
2023-05-11T15:26:14.610Z,97230.66
2023-05-11T15:28:43.281Z,97221.00
2023-05-11T15:31:11.463Z,97234.09
2023-05-11T15:33:39.607Z,97227.91
2023-05-11T15:36:13.449Z,97230.50
2023-05-11T15:38:42.049Z,97239.03
2023-05-11T15:41:10.207Z,97237.31
2023-05-11T15:43:42.336Z,97240.69
2023-05-11T15:46:10.336Z,97228.22
2023-05-11T15:48:38.885Z,97230.13
2023-05-11T15:51:08.143Z,97232.56
2023-05-11T15:53:37.428Z,97230.00
2023-05-11T15:56:09.088Z,97232.13
2023-05-11T15:58:37.568Z,97238.91
2023-05-11T16:01:07.726Z,97233.50
2023-05-11T16:03:36.556Z,97228.66
2023-05-11T16:06:05.259Z,97242.88
2023-05-11T16:08:34.761Z,97242.47
2023-05-11T16:11:03.493Z,97226.19
2023-05-11T16:13:31.593Z,97241.56
2023-05-11T16:16:00.636Z,97247.19
2023-05-11T16:18:30.722Z,97255.53
2023-05-11T16:20:59.001Z,97247.75
2023-05-11T16:23:28.421Z,97245.31
2023-05-11T16:25:57.537Z,97244.06
2023-05-11T16:28:25.964Z,97252.94
2023-05-11T16:30:58.465Z,97256.41
2023-05-11T16:33:27.327Z,97255.34
2023-05-11T16:35:57.524Z,97257.66
2023-05-11T16:38:25.850Z,97260.22
2023-05-11T16:40:55.332Z,97256.16
2023-05-11T16:43:24.062Z,97249.06
2023-05-11T16:45:52.744Z,97252.19
2023-05-11T16:48:21.607Z,97255.69
2023-05-11T16:50:53.399Z,97260.75
2023-05-11T16:53:27.189Z,97264.63
2023-05-11T16:55:56.636Z,97267.56
2023-05-11T16:58:25.588Z,97261.00
2023-05-11T17:00:54.406Z,97254.56
2023-05-11T17:03:23.798Z,97266.88
2023-05-11T17:05:52.497Z,97271.38
2023-05-11T17:08:23.719Z,97262.31
2023-05-11T17:10:52.760Z,97278.28
2023-05-11T17:13:21.608Z,97277.59
2023-05-11T17:15:51.480Z,97275.44
2023-05-11T17:18:20.839Z,97282.50
2023-05-11T17:20:53.312Z,97278.94
2023-05-11T17:23:23.410Z,97273.63
2023-05-11T17:25:51.607Z,97272.53
2023-05-11T17:28:19.721Z,97279.06
2023-05-11T17:30:49.246Z,97270.44
2023-05-11T17:33:17.688Z,97274.94
2023-05-11T17:35:46.233Z,97274.72
2023-05-11T17:38:14.912Z,97280.34
2023-05-11T17:40:45.326Z,97278.56
2023-05-11T17:43:13.405Z,97284.63
2023-05-11T17:45:41.973Z,97288.19
2023-05-11T17:48:10.094Z,97296.19
2023-05-11T17:50:38.176Z,97297.75
2023-05-11T17:53:07.409Z,97297.47
2023-05-11T17:55:39.599Z,97303.19
2023-05-11T17:58:09.913Z,97298.97
2023-05-11T18:00:38.746Z,97308.63
2023-05-11T18:03:07.395Z,97313.31
2023-05-11T18:05:48.426Z,97307.06
2023-05-11T18:08:17.285Z,97310.72
2023-05-11T18:10:46.011Z,97310.00
2023-05-11T18:13:17.409Z,97315.13
2023-05-11T18:15:46.735Z,97310.63
2023-05-11T18:18:14.983Z,97317.66
2023-05-11T18:20:46.044Z,97322.78
2023-05-11T18:23:14.313Z,97322.91
2023-05-11T18:25:42.366Z,97325.19
2023-05-11T18:28:11.209Z,97322.72
2023-05-11T18:30:40.651Z,97322.72
2023-05-11T18:33:09.587Z,97325.88
2023-05-11T18:35:39.601Z,97311.03
2023-05-11T18:38:08.102Z,97335.31
2023-05-11T18:40:36.623Z,97325.28
2023-05-11T18:43:05.686Z,97342.59
2023-05-11T18:45:35.157Z,97344.41
2023-05-11T18:48:05.078Z,97343.75
2023-05-11T18:50:34.347Z,97349.00
2023-05-11T18:53:02.357Z,97355.25
2023-05-11T18:55:35.494Z,97350.25
2023-05-11T18:58:09.898Z,97358.91
2023-05-11T19:00:39.375Z,97363.06
2023-05-11T19:03:10.157Z,97365.03
2023-05-11T19:05:38.941Z,97372.88
2023-05-11T19:08:07.542Z,97362.84
2023-05-11T19:10:38.623Z,97359.44
2023-05-11T19:13:07.068Z,97366.44
2023-05-11T19:15:37.216Z,97371.41
2023-05-11T19:18:05.767Z,97365.81
2023-05-11T19:20:35.859Z,97375.66
2023-05-11T19:23:04.860Z,97387.81
2023-05-11T19:25:33.239Z,97389.94
2023-05-11T19:28:01.484Z,97389.78
2023-05-11T19:30:30.261Z,97382.44
2023-05-11T19:32:59.174Z,97376.44
2023-05-11T19:35:28.233Z,97390.25
2023-05-11T19:37:58.188Z,97374.63
2023-05-11T19:40:45.480Z,97383.84
2023-05-11T19:43:14.777Z,97383.06
2023-05-11T19:45:43.747Z,97389.03
2023-05-11T19:48:12.135Z,97382.44
2023-05-11T19:50:40.799Z,97386.81
2023-05-11T19:53:10.056Z,97384.59
2023-05-11T19:55:38.630Z,97385.59
2023-05-11T19:58:10.468Z,97386.72
2023-05-11T20:00:41.114Z,97383.09
2023-05-11T20:03:10.303Z,97400.88
2023-05-11T20:05:39.000Z,97399.16
2023-05-11T20:08:07.798Z,97397.09
2023-05-11T20:10:37.846Z,97407.69
2023-05-11T20:13:08.200Z,97390.56
2023-05-11T20:15:41.713Z,97390.44
2023-05-11T20:18:13.155Z,97373.16
2023-05-11T20:20:48.011Z,97400.38
2023-05-11T20:23:25.145Z,97376.06
2023-05-11T20:25:55.320Z,97411.53
2023-05-11T20:28:27.402Z,97409.06
2023-05-11T20:31:00.792Z,97414.00
2023-05-11T20:36:07.078Z,97413.97
2023-05-11T20:38:37.205Z,97418.97
2023-05-11T20:41:12.658Z,97404.97
2023-05-11T20:43:41.217Z,97398.97
2023-05-11T20:46:11.492Z,97417.69
2023-05-11T20:48:43.739Z,97420.84
2023-05-11T20:51:15.454Z,97389.31
2023-05-11T20:53:44.266Z,97396.94
2023-05-11T20:56:14.014Z,97396.84
2023-05-11T20:58:48.091Z,97416.03
2023-05-11T21:01:16.280Z,97399.84
2023-05-11T21:03:46.818Z,97394.97
2023-05-11T21:06:15.410Z,97400.38
2023-05-11T21:08:43.173Z,97398.63
2023-05-11T21:11:14.393Z,97394.50
2023-05-11T21:13:44.255Z,97392.44
2023-05-11T21:16:12.207Z,97397.50
2023-05-11T21:18:40.942Z,97399.28
2023-05-11T21:21:09.715Z,97395.16
2023-05-11T21:23:40.391Z,97398.09
2023-05-11T21:26:10.769Z,97404.97
2023-05-11T21:28:41.043Z,97391.56
2023-05-11T21:31:10.914Z,97399.16
2023-05-11T21:33:38.891Z,97402.75
2023-05-11T21:36:09.589Z,97399.16
2023-05-11T21:38:37.748Z,97402.63
2023-05-11T21:41:06.163Z,97400.16
2023-05-11T21:43:34.936Z,97386.59
2023-05-11T21:46:03.074Z,97393.44
2023-05-11T21:48:33.623Z,97400.44
2023-05-11T21:51:02.953Z,97396.00
2023-05-11T21:53:31.215Z,97397.09
2023-05-11T21:55:59.181Z,97401.19
2023-05-11T21:58:27.991Z,97397.13
2023-05-11T22:00:57.212Z,97399.34
2023-05-11T22:03:25.520Z,97400.34
2023-05-11T22:05:56.161Z,97397.75
2023-05-11T22:08:24.435Z,97398.03
2023-05-11T22:10:52.857Z,97391.16
2023-05-11T22:13:21.456Z,97389.16
2023-05-11T22:15:49.912Z,97395.56
2023-05-11T22:18:17.790Z,97389.13
2023-05-11T22:20:46.459Z,97392.09
2023-05-11T22:23:15.946Z,97389.63
2023-05-11T22:25:44.315Z,97387.41
2023-05-11T22:28:13.002Z,97387.22
2023-05-11T22:30:41.546Z,97392.38
2023-05-11T22:33:10.139Z,97403.19
2023-05-11T22:35:40.304Z,97411.13
2023-05-11T22:38:09.159Z,97402.34
2023-05-11T22:40:38.828Z,97398.09
2023-05-11T22:43:07.540Z,97404.63
2023-05-11T22:45:35.910Z,97403.09
2023-05-11T22:48:04.580Z,97401.34
2023-05-11T22:50:36.572Z,97398.56
2023-05-11T22:53:04.850Z,97397.63
2023-05-11T22:55:32.809Z,97403.09
2023-05-11T22:58:03.922Z,97400.41
2023-05-11T23:00:31.967Z,97408.56
2023-05-11T23:03:00.585Z,97398.09
2023-05-11T23:05:29.265Z,97405.47
2023-05-11T23:08:00.178Z,97404.09
2023-05-11T23:10:28.799Z,97401.75
2023-05-11T23:12:57.089Z,97392.09
2023-05-11T23:15:26.855Z,97399.41
2023-05-11T23:17:54.809Z,97395.03
2023-05-11T23:20:23.315Z,97399.63
2023-05-11T23:22:52.038Z,97401.03
2023-05-11T23:25:20.458Z,97396.22
2023-05-11T23:27:48.703Z,97399.28
2023-05-11T23:30:17.672Z,97393.19
2023-05-11T23:32:47.433Z,97393.22
2023-05-11T23:35:16.267Z,97384.69
2023-05-11T23:37:46.482Z,97386.28
2023-05-11T23:40:15.746Z,97392.34
2023-05-11T23:42:43.784Z,97391.72
2023-05-11T23:45:13.405Z,97393.88
2023-05-11T23:47:41.918Z,97386.56
2023-05-11T23:50:13.215Z,97388.34
2023-05-11T23:52:41.098Z,97382.91
2023-05-11T23:55:10.757Z,97387.03
2023-05-11T23:57:38.822Z,97390.91
